Time;durP1;ratioP1;P1;durP2;ratioP2;P2;SDS_P1;SDS_P2;PMS_P1;PMS_P2;Temp;Humidity;BMP_temperature;BMP_pressure;BME280_temperature;BME280_humidity;BME280_pressure;Samples;Min_cycle;Max_cycle;Signal;HPM_P1;HPM_P2
2022/05/01 00:00:06;;;;;;;6.18;5.55;;;;;;;;;;2081769;28;20569;-51
2022/05/01 00:01:07;;;;;;;7.13;6.47;;;;;;;;;;2081539;28;20176;-54
2022/05/01 00:02:07;;;;;;;6.57;5.93;;;;;;;;;;2081841;28;20173;-52
2022/05/01 00:03:07;;;;;;;7.53;6.43;;;;;;;;;;2081983;28;20314;-54
2022/05/01 00:04:07;;;;;;;7.18;6.47;;;;;;;;;;2072684;28;20665;-55
2022/05/01 00:05:08;;;;;;;8.80;8.00;;;;;;;;;;2072989;28;20191;-56
2022/05/01 00:06:09;;;;;;;8.27;7.22;;;;;;;;;;2081679;28;20222;-52
2022/05/01 00:07:12;;;;;;;7.75;7.05;;;;;;;;;;2081814;28;20267;-55
2022/05/01 00:08:14;;;;;;;8.52;7.80;;;;;;;;;;2081831;28;20180;-51
2022/05/01 00:09:14;;;;;;;9.60;8.80;;;;;;;;;;2081659;28;20194;-52
2022/05/01 00:10:14;;;;;;;7.55;6.85;;;;;;;;;;2081954;28;20180;-50
2022/05/01 00:11:14;;;;;;;8.57;7.70;;;;;;;;;;2081534;28;20180;-56
2022/05/01 00:12:16;;;;;;;8.40;7.70;;;;;;;;;;2081803;28;20183;-51
2022/05/01 00:13:16;;;;;;;8.30;7.50;;;;;;;;;;2081850;28;20206;-52
2022/05/01 00:14:17;;;;;;;9.18;8.27;;;;;;;;;;2081459;28;20186;-53
2022/05/01 00:15:18;;;;;;;11.40;9.88;;;;;;;;;;2081681;28;20188;-54
2022/05/01 00:16:18;;;;;;;8.27;7.40;;;;;;;;;;2081629;28;20655;-53
2022/05/01 00:17:18;;;;;;;9.10;8.27;;;;;;;;;;2081699;28;20215;-52
2022/05/01 00:18:19;;;;;;;9.85;8.30;;;;;;;;;;2081618;28;20239;-55
2022/05/01 00:19:21;;;;;;;7.93;7.32;;;;;;;;;;2081901;28;20164;-51
2022/05/01 00:20:21;;;;;;;8.18;7.40;;;;;;;;;;2081707;28;20265;-55
2022/05/01 00:21:21;;;;;;;8.13;7.35;;;;;;;;;;2081664;28;20172;-53
2022/05/01 00:22:21;;;;;;;11.18;9.77;;;;;;;;;;2081510;28;20542;-53
2022/05/01 00:23:22;;;;;;;10.32;9.15;;;;;;;;;;2081673;28;20636;-55
2022/05/01 00:24:22;;;;;;;11.82;10.27;;;;;;;;;;2081250;28;20533;-55
2022/05/01 00:25:22;;;;;;;9.45;8.55;;;;;;;;;;2081741;28;20177;-49
2022/05/01 00:26:22;;;;;;;12.20;9.27;;;;;;;;;;2081832;28;20164;-54
2022/05/01 00:27:23;;;;;;;12.65;10.32;;;;;;;;;;2081797;28;20672;-53
2022/05/01 00:28:23;;;;;;;9.50;8.60;;;;;;;;;;2072760;28;20184;-53
2022/05/01 00:29:24;;;;;;;8.70;7.38;;;;;;;;;;2073501;28;20601;-55
2022/05/01 00:30:26;;;;;;;7.88;7.20;;;;;;;;;;2082530;28;20206;-55
2022/05/01 00:31:26;;;;;;;7.97;7.22;;;;;;;;;;2081933;28;20168;-54
2022/05/01 00:36:25;;;;;;;8.50;7.78;;;;;;;;;;2082578;28;20180;-57
2022/05/01 00:36:26;;;;;;;7.80;6.55;;;;;;;;;;2082056;28;20648;-54
2022/05/01 00:37:26;;;;;;;8.20;7.30;;;;;;;;;;2083593;28;20224;-57
2022/05/01 00:38:26;;;;;;;8.48;7.68;;;;;;;;;;2083815;28;20313;-54
2022/05/01 00:39:26;;;;;;;8.25;7.45;;;;;;;;;;2083075;28;20172;-53
2022/05/01 00:40:27;;;;;;;8.63;7.13;;;;;;;;;;2083170;28;20256;-55
2022/05/01 00:41:28;;;;;;;9.98;7.03;;;;;;;;;;2082436;28;20192;-58
2022/05/01 00:42:28;;;;;;;7.90;7.28;;;;;;;;;;2082767;28;20175;-55
2022/05/01 00:43:28;;;;;;;7.97;7.28;;;;;;;;;;2083211;28;20227;-57
2022/05/01 00:44:28;;;;;;;8.45;7.32;;;;;;;;;;2082376;28;20267;-56
2022/05/01 00:45:29;;;;;;;7.93;7.22;;;;;;;;;;2082926;28;20176;-51
2022/05/01 00:46:31;;;;;;;10.57;8.18;;;;;;;;;;2082590;28;20172;-58
2022/05/01 00:47:31;;;;;;;7.60;6.90;;;;;;;;;;2083016;28;20775;-55
2022/05/01 00:48:31;;;;;;;8.80;6.82;;;;;;;;;;2082752;28;20168;-51
2022/05/01 00:49:32;;;;;;;8.23;7.35;;;;;;;;;;2082579;28;20184;-54
2022/05/01 00:50:32;;;;;;;8.07;7.35;;;;;;;;;;2082799;28;20168;-55
2022/05/01 00:51:35;;;;;;;8.82;7.93;;;;;;;;;;2082512;28;20164;-49
2022/05/01 00:52:35;;;;;;;8.73;7.97;;;;;;;;;;2074490;28;20185;-52
2022/05/01 00:53:36;;;;;;;9.80;7.82;;;;;;;;;;2065712;28;20189;-53
2022/05/01 00:54:37;;;;;;;8.07;7.07;;;;;;;;;;2073873;28;20634;-55
2022/05/01 00:55:38;;;;;;;8.63;7.72;;;;;;;;;;2082398;28;20168;-54
2022/05/01 00:56:43;;;;;;;8.27;7.47;;;;;;;;;;2082560;28;20176;-51
2022/05/01 00:57:45;;;;;;;8.57;7.50;;;;;;;;;;2082696;28;20187;-51
2022/05/01 00:58:46;;;;;;;8.45;7.35;;;;;;;;;;2082642;28;20203;-53
2022/05/01 00:59:47;;;;;;;9.93;8.93;;;;;;;;;;2082468;28;20180;-52
2022/05/01 01:00:48;;;;;;;8.85;8.05;;;;;;;;;;2073785;28;20505;-57
2022/05/01 01:01:49;;;;;;;8.75;8.00;;;;;;;;;;2074108;28;20192;-52
2022/05/01 01:02:50;;;;;;;10.63;9.55;;;;;;;;;;2083524;28;20175;-58
2022/05/01 01:03:52;;;;;;;9.93;8.23;;;;;;;;;;2074313;28;20165;-54
2022/05/01 01:04:52;;;;;;;9.68;8.77;;;;;;;;;;2075149;28;20177;-50
2022/05/01 01:05:53;;;;;;;8.95;8.00;;;;;;;;;;2082040;28;20338;-51
2022/05/01 01:06:53;;;;;;;9.23;8.32;;;;;;;;;;2073573;28;20169;-51
2022/05/01 01:07:53;;;;;;;10.00;8.98;;;;;;;;;;2072605;28;20173;-50
2022/05/01 01:08:54;;;;;;;9.98;9.00;;;;;;;;;;2074854;28;20580;-56
2022/05/01 01:09:54;;;;;;;9.68;8.85;;;;;;;;;;2075751;28;20184;-55
2022/05/01 01:10:54;;;;;;;9.27;8.32;;;;;;;;;;2084906;28;20259;-53
2022/05/01 01:13:13;;;;;;;10.20;9.15;;;;;;;;;;2081783;28;20175;-53
2022/05/01 01:14:15;;;;;;;10.10;9.20;;;;;;;;;;2081645;28;20176;-51
2022/05/01 01:15:15;;;;;;;10.20;8.98;;;;;;;;;;2081848;28;20168;-51
2022/05/01 01:16:16;;;;;;;9.90;9.00;;;;;;;;;;2081735;28;20184;-51
2022/05/01 01:17:16;;;;;;;9.75;8.80;;;;;;;;;;2082906;28;20695;-55
2022/05/01 01:18:16;;;;;;;9.88;8.90;;;;;;;;;;2075062;28;20201;-57
2022/05/01 01:19:16;;;;;;;10.55;9.65;;;;;;;;;;2074240;28;20177;-53
2022/05/01 01:20:21;;;;;;;9.75;8.73;;;;;;;;;;2084537;28;20172;-54
2022/05/01 01:21:21;;;;;;;11.27;9.35;;;;;;;;;;2084602;28;20184;-51
2022/05/01 01:22:22;;;;;;;10.00;9.00;;;;;;;;;;2084729;28;20223;-53
2022/05/01 01:23:23;;;;;;;10.38;8.60;;;;;;;;;;2076198;28;20255;-52
2022/05/01 01:24:23;;;;;;;11.90;9.43;;;;;;;;;;2074207;28;20255;-51
2022/05/01 01:25:31;;;;;;;9.48;8.40;;;;;;;;;;2082638;28;20226;-50
2022/05/01 01:26:32;;;;;;;10.32;9.32;;;;;;;;;;2082436;28;20175;-53
2022/05/01 01:27:32;;;;;;;10.65;9.75;;;;;;;;;;2082568;28;20655;-50
2022/05/01 01:28:33;;;;;;;9.80;8.82;;;;;;;;;;2082109;28;20230;-48
2022/05/01 01:32:12;;;;;;;10.88;9.77;;;;;;;;;;2081541;28;20640;-50
2022/05/01 01:33:13;;;;;;;9.52;8.68;;;;;;;;;;2072981;28;20211;-54
2022/05/01 01:34:14;;;;;;;10.23;9.23;;;;;;;;;;2072518;28;20177;-51
2022/05/01 01:35:15;;;;;;;10.88;8.82;;;;;;;;;;2081999;28;20195;-53
2022/05/01 01:36:15;;;;;;;10.25;8.95;;;;;;;;;;2081861;28;20677;-52
2022/05/01 01:37:16;;;;;;;10.57;9.60;;;;;;;;;;2081332;28;20677;-53
2022/05/01 01:38:17;;;;;;;11.05;9.98;;;;;;;;;;2081091;28;20677;-55
2022/05/01 01:39:18;;;;;;;10.23;9.30;;;;;;;;;;2073205;28;20214;-54
2022/05/01 01:40:20;;;;;;;10.27;9.35;;;;;;;;;;2072486;28;20204;-54
2022/05/01 01:41:21;;;;;;;10.32;9.23;;;;;;;;;;2081835;28;20751;-54
2022/05/01 01:42:22;;;;;;;9.82;8.90;;;;;;;;;;2081428;28;20176;-55
2022/05/01 01:43:23;;;;;;;10.80;9.60;;;;;;;;;;2081879;28;20227;-50
2022/05/01 01:44:24;;;;;;;9.80;8.83;;;;;;;;;;2082009;28;20180;-53
2022/05/01 01:45:28;;;;;;;10.77;9.83;;;;;;;;;;2083037;28;20164;-53
2022/05/01 01:46:31;;;;;;;10.73;9.52;;;;;;;;;;2065767;28;20184;-49
2022/05/01 01:47:33;;;;;;;10.70;9.70;;;;;;;;;;2059700;28;20194;-51
2022/05/01 01:48:33;;;;;;;10.68;9.52;;;;;;;;;;2067126;28;20180;-52
2022/05/01 01:49:33;;;;;;;10.20;9.23;;;;;;;;;;2068332;28;20184;-55
2022/05/01 01:50:33;;;;;;;9.57;8.77;;;;;;;;;;2083445;28;20179;-53
2022/05/01 01:51:34;;;;;;;10.50;9.43;;;;;;;;;;2083495;28;20247;-50
2022/05/01 01:52:35;;;;;;;10.30;9.23;;;;;;;;;;2074907;28;20217;-50
2022/05/01 01:53:38;;;;;;;10.48;9.57;;;;;;;;;;2073481;28;20196;-51
2022/05/01 01:54:38;;;;;;;9.27;8.38;;;;;;;;;;2073181;28;20284;-52
2022/05/01 01:55:38;;;;;;;10.77;8.98;;;;;;;;;;2082659;28;20260;-51
2022/05/01 01:56:39;;;;;;;11.93;9.68;;;;;;;;;;2081416;28;20177;-53
2022/05/01 01:57:39;;;;;;;11.02;10.02;;;;;;;;;;2081591;28;20165;-49
2022/05/01 01:58:40;;;;;;;11.80;9.57;;;;;;;;;;2081616;28;20230;-53
2022/05/01 01:59:41;;;;;;;10.93;9.63;;;;;;;;;;2072647;28;20188;-52
2022/05/01 02:00:41;;;;;;;10.70;9.73;;;;;;;;;;2072971;28;20240;-52
2022/05/01 02:01:42;;;;;;;10.60;9.60;;;;;;;;;;2082068;28;20172;-52
2022/05/01 02:02:43;;;;;;;10.73;9.83;;;;;;;;;;2073525;28;20176;-55
2022/05/01 02:03:43;;;;;;;11.32;9.48;;;;;;;;;;2073504;28;20192;-48
2022/05/01 02:04:43;;;;;;;10.80;9.80;;;;;;;;;;2082423;28;20173;-50
2022/05/01 02:05:44;;;;;;;11.10;10.10;;;;;;;;;;2083422;28;20165;-51
2022/05/01 02:06:44;;;;;;;11.40;10.30;;;;;;;;;;2073107;28;20180;-55
2022/05/01 02:07:44;;;;;;;11.75;10.65;;;;;;;;;;2073414;28;20674;-53
2022/05/01 02:08:47;;;;;;;11.70;10.43;;;;;;;;;;2074889;28;20185;-55
2022/05/01 02:09:47;;;;;;;11.25;10.07;;;;;;;;;;2084008;28;20168;-51
2022/05/01 02:10:48;;;;;;;11.70;10.60;;;;;;;;;;2084049;28;20191;-50
2022/05/01 02:11:48;;;;;;;13.77;10.97;;;;;;;;;;2084217;28;20243;-48
2022/05/01 02:12:48;;;;;;;12.45;11.15;;;;;;;;;;2084286;28;20178;-57
2022/05/01 02:13:49;;;;;;;14.18;11.45;;;;;;;;;;2083766;28;20232;-51
2022/05/01 02:14:49;;;;;;;12.07;10.87;;;;;;;;;;2083455;28;20188;-50
2022/05/01 02:15:49;;;;;;;12.77;11.52;;;;;;;;;;2084352;28;20267;-54
2022/05/01 02:16:50;;;;;;;12.07;10.90;;;;;;;;;;2083369;28;20185;-50
2022/05/01 02:17:50;;;;;;;12.27;10.83;;;;;;;;;;2083938;28;20164;-51
2022/05/01 02:18:50;;;;;;;12.03;10.90;;;;;;;;;;2083495;28;20210;-51
2022/05/01 02:19:50;;;;;;;12.27;11.03;;;;;;;;;;2083521;28;20190;-49
2022/05/01 02:22:10;;;;;;;12.63;11.37;;;;;;;;;;2084489;28;20175;-54
2022/05/01 02:23:10;;;;;;;12.73;11.30;;;;;;;;;;2083985;28;20175;-50
2022/05/01 02:24:12;;;;;;;14.03;11.33;;;;;;;;;;2084077;28;20199;-49
2022/05/01 02:25:13;;;;;;;11.60;10.40;;;;;;;;;;2083535;28;20208;-51
2022/05/01 02:26:13;;;;;;;12.10;10.98;;;;;;;;;;2083592;28;20715;-54
2022/05/01 02:27:14;;;;;;;11.63;10.43;;;;;;;;;;2083660;28;20306;-56
2022/05/01 02:28:14;;;;;;;12.13;10.88;;;;;;;;;;2083939;28;20255;-53
2022/05/01 02:29:15;;;;;;;11.70;10.60;;;;;;;;;;2083726;28;20181;-51
2022/05/01 02:30:15;;;;;;;11.60;10.48;;;;;;;;;;2083317;28;20203;-51
2022/05/01 02:31:16;;;;;;;11.10;10.10;;;;;;;;;;2083412;28;20217;-53
2022/05/01 02:32:18;;;;;;;13.52;11.20;;;;;;;;;;2083937;28;20656;-49
2022/05/01 02:33:19;;;;;;;11.88;10.63;;;;;;;;;;2083514;28;20180;-54
2022/05/01 02:34:22;;;;;;;12.00;10.35;;;;;;;;;;2083075;28;20263;-50
2022/05/01 02:35:23;;;;;;;11.25;10.05;;;;;;;;;;2083362;28;20183;-51
2022/05/01 02:36:23;;;;;;;12.23;10.98;;;;;;;;;;2083633;28;20267;-53
2022/05/01 02:37:23;;;;;;;11.70;10.55;;;;;;;;;;2074666;28;20212;-50
2022/05/01 02:38:23;;;;;;;11.40;10.40;;;;;;;;;;2074688;28;20717;-52
2022/05/01 02:39:24;;;;;;;12.38;10.80;;;;;;;;;;2075051;28;20176;-49
2022/05/01 02:40:25;;;;;;;12.37;10.07;;;;;;;;;;2075444;28;20181;-52
2022/05/01 02:41:26;;;;;;;11.87;10.73;;;;;;;;;;2084058;28;20164;-50
2022/05/01 02:42:26;;;;;;;11.15;10.23;;;;;;;;;;2083867;28;20172;-55
2022/05/01 02:43:27;;;;;;;11.50;10.35;;;;;;;;;;2092031;28;20222;-58
2022/05/01 02:44:27;;;;;;;11.95;10.85;;;;;;;;;;2084106;28;20165;-53
2022/05/01 02:45:28;;;;;;;10.87;9.87;;;;;;;;;;2078626;28;20180;-50
2022/05/01 02:46:28;;;;;;;12.73;11.48;;;;;;;;;;2084750;28;20665;-51
2022/05/01 02:47:28;;;;;;;11.53;10.43;;;;;;;;;;2084834;28;20661;-53
2022/05/01 02:48:29;;;;;;;11.05;9.88;;;;;;;;;;2084960;28;20176;-53
2022/05/01 02:49:29;;;;;;;10.75;9.65;;;;;;;;;;2085035;28;20172;-53
2022/05/01 02:50:29;;;;;;;12.43;11.00;;;;;;;;;;2080780;28;20181;-51
2022/05/01 02:51:31;;;;;;;10.80;9.80;;;;;;;;;;2083050;28;20168;-52
2022/05/01 02:52:32;;;;;;;10.73;9.70;;;;;;;;;;2083738;28;20236;-49
2022/05/01 02:53:32;;;;;;;11.55;10.38;;;;;;;;;;2083232;28;20177;-51
2022/05/01 02:54:33;;;;;;;12.23;11.05;;;;;;;;;;2082754;28;20637;-53
2022/05/01 02:55:33;;;;;;;11.00;9.95;;;;;;;;;;2082958;28;20753;-51
2022/05/01 02:56:34;;;;;;;11.13;10.13;;;;;;;;;;2082811;28;20169;-52
2022/05/01 02:57:35;;;;;;;12.23;10.88;;;;;;;;;;2074155;28;20197;-51
2022/05/01 02:58:36;;;;;;;11.63;10.53;;;;;;;;;;2074717;28;20312;-50
2022/05/01 02:59:36;;;;;;;11.77;10.57;;;;;;;;;;2083726;28;20164;-52
2022/05/01 03:00:36;;;;;;;14.70;10.57;;;;;;;;;;2074482;28;20187;-51
2022/05/01 03:01:37;;;;;;;12.20;10.80;;;;;;;;;;2075023;28;20184;-52
2022/05/01 03:02:38;;;;;;;11.40;10.30;;;;;;;;;;2074460;28;20300;-52
2022/05/01 03:03:38;;;;;;;11.82;10.57;;;;;;;;;;2074793;28;20549;-55
2022/05/01 03:04:38;;;;;;;11.82;10.68;;;;;;;;;;2082677;28;20690;-50
2022/05/01 03:05:39;;;;;;;13.23;11.88;;;;;;;;;;2074353;28;20731;-50
2022/05/01 03:06:39;;;;;;;13.93;11.57;;;;;;;;;;2074076;28;20256;-51
2022/05/01 03:07:39;;;;;;;12.70;11.48;;;;;;;;;;2082852;28;20262;-51
2022/05/01 03:08:40;;;;;;;13.57;11.13;;;;;;;;;;2083168;28;20171;-55
2022/05/01 03:09:41;;;;;;;15.60;13.98;;;;;;;;;;2074402;28;20247;-52
2022/05/01 03:10:42;;;;;;;18.75;14.40;;;;;;;;;;2074390;28;20275;-52
2022/05/01 03:11:42;;;;;;;19.05;13.98;;;;;;;;;;2066148;28;20586;-54
2022/05/01 03:12:42;;;;;;;16.25;13.90;;;;;;;;;;2066571;28;20210;-50
2022/05/01 03:13:43;;;;;;;16.05;14.18;;;;;;;;;;2073715;28;20169;-51
2022/05/01 03:14:43;;;;;;;16.70;14.07;;;;;;;;;;2073737;28;20173;-51
2022/05/01 03:15:43;;;;;;;17.98;15.13;;;;;;;;;;2065473;28;20220;-51
2022/05/01 03:16:44;;;;;;;17.13;14.88;;;;;;;;;;2074357;28;20180;-50
2022/05/01 03:23:00;;;;;;;13.07;11.00;;;;;;;;;;2082902;28;20164;-53
2022/05/01 03:24:00;;;;;;;12.45;11.27;;;;;;;;;;2082230;28;20200;-51
2022/05/01 03:25:00;;;;;;;12.85;11.27;;;;;;;;;;2082790;28;20318;-55
2022/05/01 03:26:01;;;;;;;13.73;11.95;;;;;;;;;;2074164;28;20256;-52
2022/05/01 03:27:01;;;;;;;13.93;11.70;;;;;;;;;;2074197;28;20184;-56
2022/05/01 03:28:01;;;;;;;13.00;11.03;;;;;;;;;;2082903;28;20181;-55
2022/05/01 03:29:02;;;;;;;14.57;11.35;;;;;;;;;;2083104;28;20307;-49
2022/05/01 03:30:18;;;;;;;12.95;11.73;;;;;;;;;;2082829;28;20176;-51
2022/05/01 03:31:18;;;;;;;12.33;11.03;;;;;;;;;;2083264;28;20596;-49
2022/05/01 03:32:19;;;;;;;11.50;10.40;;;;;;;;;;2074627;28;20173;-52
2022/05/01 03:33:22;;;;;;;12.68;10.73;;;;;;;;;;2074175;28;20185;-54
2022/05/01 03:34:26;;;;;;;11.20;9.98;;;;;;;;;;2073355;28;20573;-51
2022/05/01 03:35:26;;;;;;;12.52;10.80;;;;;;;;;;2065883;28;20215;-52
2022/05/01 03:36:27;;;;;;;15.67;11.03;;;;;;;;;;2074229;28;20208;-50
2022/05/01 03:37:29;;;;;;;13.43;11.37;;;;;;;;;;2082754;28;20196;-50
2022/05/01 03:38:29;;;;;;;12.17;10.80;;;;;;;;;;2073495;28;20616;-52
2022/05/01 03:39:29;;;;;;;13.25;11.80;;;;;;;;;;2073618;28;20205;-51
2022/05/01 03:40:30;;;;;;;12.95;11.60;;;;;;;;;;2082330;28;20183;-55
2022/05/01 03:41:31;;;;;;;12.88;11.48;;;;;;;;;;2082742;28;20171;-51
2022/05/01 03:42:31;;;;;;;12.93;11.07;;;;;;;;;;2083185;28;20637;-51
2022/05/01 03:43:32;;;;;;;12.80;11.00;;;;;;;;;;2091002;28;20668;-50
2022/05/01 03:44:32;;;;;;;12.20;11.00;;;;;;;;;;2090871;28;20175;-53
2022/05/01 03:45:33;;;;;;;12.45;11.25;;;;;;;;;;2089041;28;20195;-50
2022/05/01 03:46:36;;;;;;;13.25;11.73;;;;;;;;;;2082989;28;20175;-55
2022/05/01 03:47:37;;;;;;;12.05;10.40;;;;;;;;;;2082996;28;20278;-53
2022/05/01 03:48:37;;;;;;;12.38;11.07;;;;;;;;;;2082581;28;20222;-51
2022/05/01 03:49:37;;;;;;;12.93;11.63;;;;;;;;;;2082659;28;20753;-53
2022/05/01 03:50:38;;;;;;;12.80;11.48;;;;;;;;;;2082482;28;20168;-51
2022/05/01 03:51:39;;;;;;;12.48;11.05;;;;;;;;;;2082418;28;20180;-50
2022/05/01 03:52:39;;;;;;;12.77;11.57;;;;;;;;;;2083933;28;20617;-52
2022/05/01 03:53:39;;;;;;;11.43;10.23;;;;;;;;;;2085356;28;20540;-54
2022/05/01 03:54:39;;;;;;;11.70;10.50;;;;;;;;;;2084217;28;20223;-50
2022/05/01 03:55:39;;;;;;;11.85;10.75;;;;;;;;;;2083104;28;20707;-52
2022/05/01 03:56:40;;;;;;;11.70;10.55;;;;;;;;;;2074371;28;20279;-54
2022/05/01 03:57:40;;;;;;;11.35;10.20;;;;;;;;;;2074539;28;20180;-51
2022/05/01 03:58:40;;;;;;;12.20;10.90;;;;;;;;;;2082907;28;20299;-56
2022/05/01 03:59:40;;;;;;;12.00;10.90;;;;;;;;;;2082981;28;20179;-53
2022/05/01 04:00:44;;;;;;;12.35;10.90;;;;;;;;;;2074737;28;20161;-54
2022/05/01 04:01:44;;;;;;;12.13;10.90;;;;;;;;;;2075793;28;20863;-51
2022/05/01 04:02:45;;;;;;;12.18;10.65;;;;;;;;;;2083774;28;20175;-52
2022/05/01 04:03:46;;;;;;;12.85;11.05;;;;;;;;;;2083927;28;20653;-56
2022/05/01 04:04:48;;;;;;;11.52;10.32;;;;;;;;;;2083635;28;20227;-51
2022/05/01 04:05:48;;;;;;;12.43;11.07;;;;;;;;;;2083625;28;20171;-53
2022/05/01 04:06:48;;;;;;;12.73;11.40;;;;;;;;;;2084020;28;20168;-57
2022/05/01 04:07:49;;;;;;;12.30;11.13;;;;;;;;;;2084303;28;20729;-53
2022/05/01 04:08:49;;;;;;;13.77;11.77;;;;;;;;;;2084224;28;20176;-54
2022/05/01 04:09:49;;;;;;;14.25;12.40;;;;;;;;;;2083660;28;20187;-57
2022/05/01 04:10:49;;;;;;;13.52;11.35;;;;;;;;;;2083870;28;20196;-57
2022/05/01 04:11:53;;;;;;;13.68;11.85;;;;;;;;;;2074870;28;20706;-54
2022/05/01 04:12:53;;;;;;;13.52;12.13;;;;;;;;;;2075250;28;20288;-50
2022/05/01 04:13:53;;;;;;;14.57;13.05;;;;;;;;;;2084307;28;20184;-54
2022/05/01 04:14:56;;;;;;;15.82;14.13;;;;;;;;;;2084052;28;20597;-53
2022/05/01 04:15:57;;;;;;;16.20;13.40;;;;;;;;;;2084863;28;20168;-51
2022/05/01 04:18:10;;;;;;;17.05;15.25;;;;;;;;;;2084684;28;20238;-55
2022/05/01 04:19:12;;;;;;;19.35;14.30;;;;;;;;;;2089072;28;20217;-55
2022/05/01 04:20:13;;;;;;;16.05;14.13;;;;;;;;;;2089237;28;20579;-52
2022/05/01 04:21:14;;;;;;;15.50;13.43;;;;;;;;;;2089829;28;20179;-52
2022/05/01 04:22:14;;;;;;;15.30;13.10;;;;;;;;;;2089463;28;20190;-52
2022/05/01 04:23:14;;;;;;;12.57;11.20;;;;;;;;;;2085027;28;20679;-54
2022/05/01 04:24:14;;;;;;;12.93;11.52;;;;;;;;;;2088647;28;20180;-56
2022/05/01 04:25:16;;;;;;;12.82;11.40;;;;;;;;;;2089661;28;20186;-54
2022/05/01 04:26:16;;;;;;;13.52;12.15;;;;;;;;;;2089392;28;20172;-56
2022/05/01 04:27:16;;;;;;;16.15;12.65;;;;;;;;;;2089144;28;20253;-53
2022/05/01 04:28:17;;;;;;;13.13;11.82;;;;;;;;;;2089841;28;20197;-58
2022/05/01 04:29:50;;;;;;;13.50;11.88;;;;;;;;;;2089784;28;20202;-51
2022/05/01 04:30:44;;;;;;;12.57;11.18;;;;;;;;;;2086380;28;20239;-56
2022/05/01 04:31:44;;;;;;;13.38;11.65;;;;;;;;;;2089991;28;20214;-51
2022/05/01 04:32:50;;;;;;;13.75;12.23;;;;;;;;;;2089677;28;20176;-53
2022/05/01 04:33:51;;;;;;;12.15;10.85;;;;;;;;;;2080931;28;20218;-51
2022/05/01 04:34:51;;;;;;;13.45;11.90;;;;;;;;;;2080624;28;20589;-54
2022/05/01 04:35:51;;;;;;;15.65;11.57;;;;;;;;;;2090368;28;20175;-56
2022/05/01 04:36:51;;;;;;;14.07;12.20;;;;;;;;;;2089147;28;20214;-55
2022/05/01 04:37:53;;;;;;;16.52;11.57;;;;;;;;;;2082233;28;20192;-57
2022/05/01 04:38:53;;;;;;;12.23;10.98;;;;;;;;;;2091424;28;20207;-56
2022/05/01 04:39:54;;;;;;;12.52;11.43;;;;;;;;;;2091194;28;20541;-56
2022/05/01 04:40:55;;;;;;;12.70;11.50;;;;;;;;;;2091154;28;20163;-57
2022/05/01 04:41:55;;;;;;;12.80;11.25;;;;;;;;;;2089746;28;20184;-57
2022/05/01 04:43:12;;;;;;;12.82;11.23;;;;;;;;;;2094897;28;20167;-58
2022/05/01 04:44:12;;;;;;;13.40;12.05;;;;;;;;;;2098432;28;20171;-55
2022/05/01 04:45:13;;;;;;;14.00;12.13;;;;;;;;;;2099074;28;20171;-58
2022/05/01 04:46:14;;;;;;;12.73;11.43;;;;;;;;;;2089896;28;20160;-57
2022/05/01 04:47:15;;;;;;;13.45;11.38;;;;;;;;;;2085499;28;20676;-55
2022/05/01 04:48:16;;;;;;;12.77;11.48;;;;;;;;;;2086489;28;20171;-55
2022/05/01 04:49:18;;;;;;;12.63;11.32;;;;;;;;;;2082211;28;20682;-58
2022/05/01 04:50:19;;;;;;;14.98;10.63;;;;;;;;;;2082436;28;20188;-55
2022/05/01 04:51:19;;;;;;;12.73;11.32;;;;;;;;;;2089803;28;20179;-57
2022/05/01 04:52:19;;;;;;;16.58;12.80;;;;;;;;;;2089819;28;20191;-51
2022/05/01 04:53:20;;;;;;;12.75;11.45;;;;;;;;;;2085391;28;20210;-55
2022/05/01 04:54:21;;;;;;;13.13;11.40;;;;;;;;;;2088024;28;20229;-54
2022/05/01 04:55:21;;;;;;;14.20;11.68;;;;;;;;;;2089416;28;20266;-58
2022/05/01 04:57:40;;;;;;;13.68;11.35;;;;;;;;;;2088881;28;20198;-58
2022/05/01 04:58:41;;;;;;;14.45;12.13;;;;;;;;;;2090322;28;20191;-55
2022/05/01 04:59:41;;;;;;;13.90;11.57;;;;;;;;;;2089971;28;20160;-56
2022/05/01 05:00:42;;;;;;;16.08;12.40;;;;;;;;;;2090044;28;20535;-53
2022/05/01 05:01:42;;;;;;;13.18;11.65;;;;;;;;;;2090001;28;20171;-59
2022/05/01 05:02:43;;;;;;;13.07;11.65;;;;;;;;;;2084572;28;20168;-58
2022/05/01 05:03:43;;;;;;;12.57;11.15;;;;;;;;;;2089698;28;20247;-52
2022/05/01 05:04:43;;;;;;;13.35;11.45;;;;;;;;;;2089510;28;20620;-58
2022/05/01 05:05:44;;;;;;;14.27;12.10;;;;;;;;;;2089917;28;20160;-57
2022/05/01 05:06:44;;;;;;;12.77;11.52;;;;;;;;;;2088618;28;20195;-58
2022/05/01 05:07:44;;;;;;;13.63;11.35;;;;;;;;;;2088628;28;20554;-52
2022/05/01 05:10:04;;;;;;;12.43;11.18;;;;;;;;;;2077149;28;20189;-57
2022/05/01 05:11:05;;;;;;;14.98;12.55;;;;;;;;;;2072751;28;20169;-54
2022/05/01 05:12:07;;;;;;;12.98;11.68;;;;;;;;;;2083241;28;20172;-56
2022/05/01 05:13:08;;;;;;;13.05;11.70;;;;;;;;;;2081986;28;20176;-57
2022/05/01 05:14:08;;;;;;;13.07;11.77;;;;;;;;;;2072836;28;20168;-53
2022/05/01 05:15:13;;;;;;;12.48;11.20;;;;;;;;;;2073504;28;20193;-53
2022/05/01 05:16:14;;;;;;;14.43;10.90;;;;;;;;;;2082156;28;20555;-55
2022/05/01 05:17:15;;;;;;;12.60;11.35;;;;;;;;;;2089206;28;20186;-57
2022/05/01 05:18:15;;;;;;;12.57;10.82;;;;;;;;;;2090125;28;20171;-51
2022/05/01 05:19:15;;;;;;;12.95;11.35;;;;;;;;;;2086905;28;20184;-54
2022/05/01 05:20:15;;;;;;;12.40;11.20;;;;;;;;;;2081977;28;20179;-57
2022/05/01 05:21:15;;;;;;;14.82;11.32;;;;;;;;;;2081954;28;20172;-53
2022/05/01 05:22:16;;;;;;;13.95;11.35;;;;;;;;;;2081800;28;20633;-58
2022/05/01 05:23:17;;;;;;;17.17;11.57;;;;;;;;;;2072895;28;20646;-55
2022/05/01 05:24:17;;;;;;;12.45;11.25;;;;;;;;;;2072364;28;20196;-53
2022/05/01 05:25:19;;;;;;;12.88;11.35;;;;;;;;;;2072958;28;20222;-55
2022/05/01 05:26:19;;;;;;;12.13;10.82;;;;;;;;;;2088942;28;20184;-53
2022/05/01 05:27:25;;;;;;;14.05;11.48;;;;;;;;;;2089171;28;20195;-56
2022/05/01 05:28:26;;;;;;;12.15;10.95;;;;;;;;;;2089992;28;20180;-54
2022/05/01 05:29:26;;;;;;;13.48;11.85;;;;;;;;;;2089967;28;20203;-56
2022/05/01 05:30:26;;;;;;;12.02;10.93;;;;;;;;;;2089922;28;20217;-51
2022/05/01 05:31:26;;;;;;;13.00;11.57;;;;;;;;;;2089779;28;20222;-58
2022/05/01 05:32:27;;;;;;;13.15;11.07;;;;;;;;;;2080508;28;20196;-54
2022/05/01 05:33:27;;;;;;;13.75;11.52;;;;;;;;;;2073370;28;20610;-54
2022/05/01 05:34:27;;;;;;;12.23;10.93;;;;;;;;;;2081432;28;20199;-54
2022/05/01 05:35:28;;;;;;;11.73;10.52;;;;;;;;;;2081781;28;20168;-53
2022/05/01 05:36:28;;;;;;;13.10;11.43;;;;;;;;;;2081420;28;20185;-54
2022/05/01 05:37:29;;;;;;;13.55;10.82;;;;;;;;;;2082070;28;20195;-53
2022/05/01 05:38:29;;;;;;;15.20;11.55;;;;;;;;;;2081624;28;20680;-57
2022/05/01 05:39:29;;;;;;;13.55;11.77;;;;;;;;;;2082073;28;20161;-54
2022/05/01 05:40:30;;;;;;;12.27;10.65;;;;;;;;;;2081603;28;20203;-53
2022/05/01 05:41:30;;;;;;;12.75;10.75;;;;;;;;;;2082672;28;20608;-54
2022/05/01 05:42:30;;;;;;;14.73;11.07;;;;;;;;;;2079350;28;20177;-53
2022/05/01 05:43:31;;;;;;;12.18;10.57;;;;;;;;;;2082582;28;20192;-58
2022/05/01 05:44:31;;;;;;;13.75;11.27;;;;;;;;;;2090380;28;20163;-57
2022/05/01 05:45:31;;;;;;;13.20;11.82;;;;;;;;;;2099834;28;20167;-58
2022/05/01 05:46:32;;;;;;;13.52;11.00;;;;;;;;;;2099728;28;20185;-59
2022/05/01 05:47:32;;;;;;;11.80;10.45;;;;;;;;;;2090125;28;20255;-55
2022/05/01 05:48:32;;;;;;;14.32;11.70;;;;;;;;;;2083411;28;20644;-55
2022/05/01 05:49:33;;;;;;;13.73;11.45;;;;;;;;;;2090374;28;20202;-56
2022/05/01 05:50:33;;;;;;;12.95;10.90;;;;;;;;;;2090930;28;20167;-57
2022/05/01 05:51:33;;;;;;;13.98;10.85;;;;;;;;;;2083584;28;20625;-57
2022/05/01 05:52:33;;;;;;;13.15;10.30;;;;;;;;;;2083910;28;20172;-57
2022/05/01 05:53:33;;;;;;;15.25;10.63;;;;;;;;;;2091833;28;20186;-54
2022/05/01 05:54:34;;;;;;;14.15;10.77;;;;;;;;;;2091544;28;20206;-57
2022/05/01 05:55:34;;;;;;;12.20;10.98;;;;;;;;;;2088494;28;20270;-57
2022/05/01 05:56:35;;;;;;;13.18;10.50;;;;;;;;;;2092312;28;20164;-57
2022/05/01 05:57:35;;;;;;;12.38;10.85;;;;;;;;;;2082125;28;20200;-55
2022/05/01 05:58:35;;;;;;;11.63;10.48;;;;;;;;;;2083058;28;20291;-55
2022/05/01 05:59:35;;;;;;;15.70;12.70;;;;;;;;;;2091739;28;20278;-56
2022/05/01 06:00:36;;;;;;;15.43;11.25;;;;;;;;;;2091691;28;20598;-54
2022/05/01 06:01:36;;;;;;;15.55;11.85;;;;;;;;;;2091098;28;20170;-56
2022/05/01 06:02:36;;;;;;;12.48;11.13;;;;;;;;;;2091049;28;20632;-55
2022/05/01 06:03:37;;;;;;;12.20;10.98;;;;;;;;;;2091152;28;20171;-49
2022/05/01 06:04:37;;;;;;;13.82;11.20;;;;;;;;;;2090892;28;20247;-55
2022/05/01 06:05:38;;;;;;;12.60;10.38;;;;;;;;;;2091213;28;20578;-50
2022/05/01 06:06:38;;;;;;;15.20;11.77;;;;;;;;;;2089718;28;20705;-50
2022/05/01 06:07:38;;;;;;;14.52;11.25;;;;;;;;;;2076955;28;20584;-52
2022/05/01 06:08:39;;;;;;;14.75;11.60;;;;;;;;;;2074092;28;20621;-51
2022/05/01 06:09:39;;;;;;;13.80;10.88;;;;;;;;;;2082620;28;20261;-53
2022/05/01 06:10:39;;;;;;;13.48;11.43;;;;;;;;;;2084754;28;20198;-54
2022/05/01 06:11:39;;;;;;;12.57;10.52;;;;;;;;;;2087690;28;20663;-54
2022/05/01 06:12:43;;;;;;;15.07;11.40;;;;;;;;;;2088531;28;20204;-50
2022/05/01 06:13:43;;;;;;;16.23;11.73;;;;;;;;;;2090669;28;20691;-55